createdAt,value
2017-10-04T12:38:39.534Z,4.03
2017-10-04T12:41:07.943Z,4.20
2017-10-04T12:43:36.278Z,4.83
2017-10-04T12:46:04.643Z,5.37
2017-10-04T12:48:33.060Z,5.20
2017-10-04T12:51:03.054Z,4.63
2017-10-04T12:53:32.349Z,4.60
2017-10-04T12:56:00.704Z,4.60
2017-10-04T12:58:29.831Z,4.50
2017-10-04T13:00:58.611Z,4.90
2017-10-04T13:03:27.059Z,4.20
2017-10-04T13:05:56.210Z,4.60
2017-10-04T13:08:25.471Z,4.20
2017-10-04T13:10:55.346Z,4.23
2017-10-04T13:13:24.393Z,5.17
2017-10-04T13:15:54.080Z,4.20
2017-10-04T13:18:23.235Z,4.00
2017-10-04T13:20:51.586Z,4.40
2017-10-04T13:23:20.011Z,3.93
2017-10-04T13:25:48.346Z,3.90
2017-10-04T13:28:16.695Z,4.83
2017-10-04T13:30:46.024Z,3.80
2017-10-04T13:33:14.368Z,3.50
2017-10-04T13:35:42.743Z,4.60
2017-10-04T13:38:11.122Z,3.53
2017-10-04T13:40:39.459Z,4.30
2017-10-04T13:43:07.815Z,4.27
2017-10-04T13:45:38.293Z,4.40
2017-10-04T13:48:07.361Z,5.10
2017-10-04T13:50:37.103Z,4.37
2017-10-04T13:53:05.537Z,4.00
2017-10-04T13:55:34.270Z,3.47
2017-10-04T13:58:04.443Z,3.50
2017-10-04T14:00:33.649Z,3.57
2017-10-04T14:03:02.048Z,3.60
2017-10-04T14:05:31.929Z,4.30
2017-10-04T14:08:01.174Z,3.90
2017-10-04T14:10:29.533Z,4.03
2017-10-04T14:12:57.882Z,4.73
2017-10-04T14:15:27.015Z,3.87
2017-10-04T14:17:55.723Z,4.00
2017-10-04T14:20:24.274Z,3.10
2017-10-04T14:22:54.343Z,4.00
2017-10-04T14:25:22.757Z,4.27
2017-10-04T14:27:51.877Z,3.90
2017-10-04T14:30:20.522Z,3.40
2017-10-04T14:32:49.668Z,4.13
2017-10-04T14:35:18.048Z,4.60
2017-10-04T14:37:46.863Z,3.73
2017-10-04T14:40:16.331Z,3.87
2017-10-04T14:42:44.666Z,4.30
2017-10-04T14:45:13.813Z,4.33
2017-10-04T14:47:42.248Z,4.37
2017-10-04T14:50:10.630Z,4.27
2017-10-04T14:52:39.493Z,4.97
2017-10-04T14:55:08.023Z,3.70
2017-10-04T14:57:36.425Z,4.20
2017-10-04T15:00:04.777Z,4.10
2017-10-04T15:02:33.351Z,3.90
2017-10-04T15:05:01.768Z,3.33
2017-10-04T15:07:30.529Z,3.90
2017-10-04T15:09:59.467Z,4.20
2017-10-04T15:12:28.771Z,3.23
2017-10-04T15:14:57.336Z,4.20
2017-10-04T15:17:26.086Z,3.90
2017-10-04T15:19:55.240Z,3.80
2017-10-04T15:22:23.874Z,3.50
2017-10-04T15:24:52.252Z,3.73
2017-10-04T15:27:20.678Z,4.10
2017-10-04T15:29:51.804Z,3.23
2017-10-04T15:32:20.176Z,3.17
2017-10-04T15:34:49.813Z,3.43
2017-10-04T15:37:18.909Z,3.60
2017-10-04T15:39:47.889Z,3.70
2017-10-04T15:42:16.486Z,3.30
2017-10-04T15:44:45.778Z,3.17
2017-10-04T15:47:14.103Z,3.50
2017-10-04T15:49:43.837Z,3.30
2017-10-04T15:52:12.228Z,3.37
2017-10-04T15:54:43.096Z,3.37
2017-10-04T15:57:12.257Z,3.67
2017-10-04T15:59:41.871Z,4.07
2017-10-04T16:02:11.061Z,3.57
2017-10-04T16:04:39.438Z,3.50
2017-10-04T16:07:07.813Z,3.50
2017-10-04T16:09:37.216Z,2.87
2017-10-04T16:12:07.139Z,3.07
2017-10-04T16:14:35.606Z,3.10
2017-10-04T16:17:05.325Z,4.33
2017-10-04T16:19:34.321Z,3.40
2017-10-04T16:22:03.111Z,3.60
2017-10-04T16:24:32.927Z,3.17
2017-10-04T16:27:02.062Z,2.90
2017-10-04T16:29:31.449Z,3.40
2017-10-04T16:31:59.828Z,3.43
2017-10-04T16:34:28.180Z,3.40
2017-10-04T16:36:56.600Z,2.90
2017-10-04T16:39:25.278Z,4.10
2017-10-04T16:41:53.643Z,3.27
2017-10-04T16:44:23.744Z,3.43
2017-10-04T16:46:52.075Z,3.10
2017-10-04T16:49:20.418Z,3.30
2017-10-04T16:51:49.606Z,4.00
2017-10-04T16:54:18.755Z,3.10
2017-10-04T16:56:47.120Z,3.20
2017-10-04T16:59:15.912Z,3.10
2017-10-04T17:01:46.545Z,3.87
2017-10-04T17:04:15.805Z,3.20
2017-10-04T17:06:44.404Z,4.07
2017-10-04T17:09:12.734Z,3.07
2017-10-04T17:11:41.843Z,3.30
2017-10-04T17:14:11.667Z,3.00
2017-10-04T17:16:40.180Z,3.70
2017-10-04T17:19:08.540Z,3.27
2017-10-04T17:21:36.915Z,3.50
2017-10-04T17:24:05.881Z,3.10
2017-10-04T17:26:35.413Z,2.80
2017-10-04T17:29:04.895Z,3.10
2017-10-04T17:31:33.787Z,2.83
2017-10-04T17:34:02.899Z,3.80
2017-10-04T17:36:31.256Z,3.63
2017-10-04T17:39:00.895Z,2.90
2017-10-04T17:41:29.292Z,4.23
2017-10-04T17:43:57.709Z,2.87
2017-10-04T17:46:26.071Z,3.30
2017-10-04T17:48:54.427Z,2.70
2017-10-04T17:51:23.435Z,3.10
2017-10-04T17:53:53.038Z,3.27
2017-10-04T17:56:22.233Z,3.60
2017-10-04T17:58:51.063Z,2.80
2017-10-04T18:01:19.446Z,3.10
2017-10-04T18:03:48.581Z,3.20
2017-10-04T18:06:16.971Z,2.40
2017-10-04T18:08:45.888Z,3.30
2017-10-04T18:11:14.586Z,2.93
2017-10-04T18:13:43.333Z,3.30
2017-10-04T18:16:11.692Z,3.23
2017-10-04T18:18:40.774Z,3.07
2017-10-04T18:21:09.901Z,2.97
2017-10-04T18:23:38.256Z,2.80
2017-10-04T18:26:07.481Z,2.50
2017-10-04T18:28:35.876Z,3.50
2017-10-04T18:31:05.137Z,3.90
2017-10-04T18:33:34.818Z,3.30
2017-10-04T18:36:04.072Z,2.83
2017-10-04T18:38:32.841Z,3.23
2017-10-04T18:41:01.951Z,2.70
2017-10-04T18:43:31.302Z,2.70
2017-10-04T18:46:00.596Z,2.80
2017-10-04T18:48:29.109Z,2.47
2017-10-04T18:50:59.085Z,2.70
2017-10-04T18:53:28.160Z,2.50
2017-10-04T18:55:57.128Z,2.60
2017-10-04T18:58:26.336Z,3.23
2017-10-04T19:00:54.689Z,2.90
2017-10-04T19:03:24.319Z,2.70
2017-10-04T19:05:53.465Z,2.80
2017-10-04T19:08:21.816Z,3.10
2017-10-04T19:10:50.442Z,2.60
2017-10-04T19:13:18.838Z,3.27
2017-10-04T19:15:47.980Z,2.37
2017-10-04T19:18:16.332Z,2.90
2017-10-04T19:20:45.973Z,2.60
2017-10-04T19:23:14.343Z,3.03
2017-10-04T19:25:43.339Z,2.90
2017-10-04T19:28:11.693Z,2.47
2017-10-04T19:30:40.060Z,2.97
2017-10-04T19:33:08.425Z,3.27
2017-10-04T19:35:37.461Z,3.73
2017-10-04T19:38:05.807Z,3.60
2017-10-04T19:40:35.271Z,4.10
2017-10-04T19:43:04.402Z,3.80
2017-10-04T19:45:33.963Z,3.50
2017-10-04T19:48:02.732Z,3.47
2017-10-04T19:50:32.019Z,3.07
2017-10-04T19:53:01.275Z,3.10
2017-10-04T19:55:29.620Z,3.00
2017-10-04T19:57:58.299Z,3.10
2017-10-04T20:00:26.654Z,3.40
2017-10-04T20:02:56.010Z,2.97
2017-10-04T20:05:24.804Z,2.87
2017-10-04T20:07:53.273Z,3.67
2017-10-04T20:10:21.806Z,4.07
2017-10-04T20:12:52.114Z,3.00
2017-10-04T20:15:20.487Z,3.40
2017-10-04T20:17:48.854Z,3.30
2017-10-04T20:20:17.943Z,3.90
2017-10-04T20:22:46.325Z,3.70
2017-10-04T20:25:15.211Z,3.90
2017-10-04T20:27:43.734Z,3.33
2017-10-04T20:30:12.079Z,4.03
2017-10-04T20:32:41.062Z,3.50
2017-10-04T20:35:09.464Z,2.83
2017-10-04T20:37:37.834Z,2.90
2017-10-04T20:40:06.742Z,3.80
2017-10-04T20:42:35.100Z,3.80
2017-10-04T20:45:03.488Z,3.80
2017-10-04T20:47:32.587Z,3.60
2017-10-04T20:50:01.731Z,3.40
2017-10-04T20:52:30.515Z,3.90
2017-10-04T20:54:58.870Z,4.30
2017-10-04T20:57:27.476Z,3.40
2017-10-04T20:59:56.819Z,4.43
2017-10-04T21:02:25.172Z,4.67
2017-10-04T21:04:53.581Z,5.03
2017-10-04T21:07:22.863Z,4.23
2017-10-04T21:09:51.255Z,5.10
2017-10-04T21:12:20.526Z,4.43
2017-10-04T21:14:49.925Z,5.10
2017-10-04T21:17:18.275Z,4.47
2017-10-04T21:19:46.638Z,4.20
2017-10-04T21:22:15.007Z,4.27
2017-10-04T21:24:43.370Z,5.23
2017-10-04T21:27:12.539Z,4.20
2017-10-04T21:29:41.933Z,4.03
2017-10-04T21:32:10.797Z,4.60
2017-10-04T21:34:39.541Z,4.13
2017-10-04T21:37:08.153Z,5.27
2017-10-04T21:39:37.324Z,4.53
2017-10-04T21:42:06.323Z,4.30
2017-10-04T21:44:34.684Z,4.20
2017-10-04T21:47:03.935Z,4.60
2017-10-04T21:49:32.709Z,4.60
2017-10-04T21:52:01.097Z,4.70
2017-10-04T21:54:30.343Z,4.70
2017-10-04T21:56:59.147Z,4.50
2017-10-04T21:59:28.278Z,4.77
2017-10-04T22:01:57.440Z,4.43
2017-10-04T22:04:25.818Z,4.07
2017-10-04T22:06:55.548Z,4.53
2017-10-04T22:09:25.159Z,3.70
2017-10-04T22:11:53.540Z,4.97
2017-10-04T22:14:22.680Z,4.50
2017-10-04T22:16:51.063Z,5.10
2017-10-04T22:19:19.792Z,3.70
2017-10-04T22:21:48.143Z,4.30
2017-10-04T22:24:17.980Z,4.50
2017-10-04T22:26:47.571Z,3.50
2017-10-04T22:29:15.935Z,4.47
2017-10-04T22:31:44.304Z,4.30
2017-10-04T22:34:12.668Z,4.37
2017-10-04T22:36:41.528Z,4.33
2017-10-04T22:39:09.887Z,4.07
2017-10-04T22:41:38.577Z,4.30
2017-10-04T22:44:07.394Z,4.37
2017-10-04T22:46:36.490Z,4.93
2017-10-04T22:49:04.870Z,4.00
2017-10-04T22:51:34.212Z,4.03
2017-10-04T22:54:04.156Z,4.30
2017-10-04T22:56:32.507Z,4.50
2017-10-04T22:59:02.418Z,4.10
2017-10-04T23:01:31.696Z,5.13
2017-10-04T23:04:00.104Z,4.00
2017-10-04T23:06:29.470Z,4.60
2017-10-04T23:08:57.883Z,5.27
2017-10-04T23:11:28.518Z,4.70
2017-10-04T23:13:57.737Z,5.00
2017-10-04T23:16:26.142Z,5.67
2017-10-04T23:18:55.377Z,4.50
2017-10-04T23:21:23.750Z,5.87
2017-10-04T23:23:52.105Z,4.73
2017-10-04T23:26:20.849Z,4.90
2017-10-04T23:28:49.189Z,5.07
2017-10-04T23:31:17.534Z,4.50
2017-10-04T23:33:45.907Z,5.67
2017-10-04T23:36:15.800Z,5.20
2017-10-04T23:38:45.928Z,6.43
2017-10-04T23:41:16.491Z,5.67
2017-10-04T23:43:44.968Z,6.30
2017-10-04T23:46:14.161Z,5.50
2017-10-04T23:48:42.773Z,4.77
2017-10-04T23:51:11.123Z,5.10
2017-10-04T23:53:39.470Z,4.87
2017-10-04T23:56:07.929Z,4.37
2017-10-04T23:58:37.373Z,4.90
